Search for airport 
image banner adimage banner adimage banner ad
image banner ad

46CL - A T&T Center

Located in Los Angeles, United States

ICAO - 46CL, IATA -

Data provided by Airmate  

General information

Coordinates: N34°2'22" W118°15'43"
Elevation is 679 feet MSL.
Magnetic variation is 14° East
View others Airports in California

Operational data

Special qualification required
Current time UTC:
Current local time:
METAR: KHHR 240753Z AUTO 26006KT 10SM CLR 17/13 A3001 RMK AO2 SLP161 T01670133 402280167
View NOTAMs / SUP AIP / TFR affecting this airport [VIEW]
Communications frequencies: [VIEW]

Runways:

Airport contact information

Address: Los Angeles United States

Satellite view of 46CL